Карточка аэропорта UHPP

Внимание!
Информация на этой странице в стадии наполнения.
Если вы не увидели какой-то информации, или заметили неточность - пожалуйста сообщите нам!
Спасибо!
Команда RU-STAFF
Название аэропортаЕлизово
Название аэропорта (англ.)Yelizovo
Превышение131 ft. (39.9 m.)
Координаты53°10.002', 158°27.24'
Высота перехода2400m
Эшелон переходаQFE>756:FL90;756>QFE>729:FL100;729>QFE:FL110
Коды ответчика6630-6657
Зона ОрВДПетропавловск-Камчатский РПИ (UHPP)
Данные METARUHPP 150000Z 20002MPS 160V230 9000 -SHRA BKN004 OVC021CB 15/15 Q1009 R16R/290250 NOSIG RMK MT OBSC QFE754/1005
Проноз погоды (TAF)UHPP 141941Z 1421/1603 18003G12MPS 4000 -SHRA BR BKN007 BKN020CB TEMPO 1421/1423 0700 SHRA FG VV002 TEMPO 1423/1522 14008G15MPS 1000 SHRA BR VV003 FM152200 28003G12MPS 9999 BKN030CB
NOTAMshow/hide NOTAM
AWOS   TABLE

Информация о ВПП

ВПП Длина ВПП (м.) Покрытие Курс ВПП Частота ILS
16L3400Бетон164 
16R2500Бетон164 
34R3400Бетон344110.3
34L2500Бетон344 

Диспетчерские позиции

Позывной Наименование органа УВД Частота
UHPP_R_APPПетропавловск - Круг119.400
UHPP_TWRПетропавловск - Старт118.100



Спутниковое изображение